Marmora, Canada
Current Conditions -  °F | °C
As of 11:00 AM on Monday 24 Nov 2014 (Local Time) from CYTR Reporting Station
Rain Showers Rain Showers  
Wind Chill: 59°   Ceiling: 4600
Heat Index: 59°   Visibility: 15mi
Dew Point: 50°   Wind: 15mph
Humidity: 72%   Direction: 200°SSW
Pressure: 29.27"   Gusts: NA
Location:  44.48°N, 77.68°W
Report Text: CYTR 241600Z 20013KT 15SM -SHRA BKN046 15/10 A2927 RMK SC7 SLP912
Loading
Personal Weather Stations






























Interactive Weather Map New forecast layout! Learn more

10-Day Weather Forecast

Advertisements
Track Severe Weather on mobile